createdAt,value
2022-10-07T00:00:30.087Z,6.38
2022-10-07T00:02:56.669Z,6.23
2022-10-07T00:05:23.240Z,6.37
2022-10-07T00:07:49.887Z,6.40
2022-10-07T00:10:16.403Z,6.23
2022-10-07T00:12:43.937Z,6.25
2022-10-07T00:15:10.765Z,6.22
2022-10-07T00:17:37.324Z,6.18
2022-10-07T00:20:04.869Z,6.15
2022-10-07T00:22:31.489Z,6.11
2022-10-07T00:24:58.006Z,6.22
2022-10-07T00:27:24.521Z,6.28
2022-10-07T00:29:53.049Z,6.13
2022-10-07T00:32:19.602Z,6.13
2022-10-07T00:34:46.404Z,5.92
2022-10-07T00:37:13.762Z,5.98
2022-10-07T00:39:42.308Z,6.01
2022-10-07T00:42:12.998Z,5.98
2022-10-07T00:44:42.272Z,5.97
2022-10-07T00:47:14.552Z,6.01
2022-10-07T00:49:56.682Z,5.93
2022-10-07T00:52:27.365Z,5.83
2022-10-07T00:54:57.048Z,5.55
2022-10-07T00:57:25.754Z,5.69
2022-10-07T00:59:55.498Z,5.65
2022-10-07T01:02:27.296Z,5.70
2022-10-07T01:04:56.609Z,5.60
2022-10-07T01:07:23.135Z,5.61
2022-10-07T01:09:51.538Z,5.80
2022-10-07T01:12:46.810Z,5.82
2022-10-07T01:15:37.502Z,5.83
2022-10-07T01:18:18.346Z,5.80
2022-10-07T01:21:30.938Z,5.80
2022-10-07T01:24:25.070Z,5.76
2022-10-07T01:27:01.147Z,5.67
2022-10-07T01:29:37.263Z,5.82
2022-10-07T01:32:19.653Z,5.58
2022-10-07T01:34:47.757Z,5.47
2022-10-07T01:37:17.809Z,5.33
2022-10-07T01:39:51.378Z,5.29
2022-10-07T01:42:19.972Z,5.49
2022-10-07T01:44:49.737Z,5.43
2022-10-07T01:47:17.002Z,5.41
2022-10-07T01:49:45.097Z,5.32
2022-10-07T01:52:27.156Z,5.42
2022-10-07T01:55:29.856Z,5.19
2022-10-07T01:58:14.456Z,5.28
2022-10-07T02:00:47.896Z,5.30
2022-10-07T02:03:22.106Z,5.16
2022-10-07T02:06:06.380Z,5.28
2022-10-07T02:08:52.587Z,5.22
2022-10-07T02:11:25.500Z,5.30
2022-10-07T02:14:05.893Z,5.35
2022-10-07T02:16:48.206Z,5.22
2022-10-07T02:19:23.406Z,5.09
2022-10-07T02:21:53.109Z,4.81
2022-10-07T02:24:23.460Z,4.96
2022-10-07T02:26:53.241Z,5.13
2022-10-07T02:29:23.134Z,4.92
2022-10-07T02:31:54.301Z,4.89
2022-10-07T02:34:24.601Z,5.06
2022-10-07T02:36:56.092Z,5.03
2022-10-07T02:39:22.632Z,4.86
2022-10-07T02:41:59.884Z,4.76
2022-10-07T02:44:59.710Z,4.86
2022-10-07T02:47:45.089Z,4.92
2022-10-07T02:50:16.765Z,4.88
2022-10-07T02:52:45.751Z,4.86
2022-10-07T02:55:17.970Z,4.73
2022-10-07T02:57:47.839Z,4.65
2022-10-07T03:00:16.645Z,4.74
2022-10-07T03:02:57.547Z,4.75
2022-10-07T03:05:33.730Z,4.65
2022-10-07T03:08:05.065Z,4.76
2022-10-07T03:10:32.568Z,4.87
2022-10-07T03:12:59.799Z,4.68
2022-10-07T03:15:27.384Z,4.72
2022-10-07T03:17:54.878Z,4.59
2022-10-07T03:20:21.486Z,4.33
2022-10-07T03:22:49.049Z,4.28
2022-10-07T03:25:17.825Z,4.39
2022-10-07T03:27:44.660Z,4.59
2022-10-07T03:30:11.850Z,4.56
2022-10-07T03:32:40.316Z,4.47
2022-10-07T03:35:08.937Z,4.46
2022-10-07T03:37:36.345Z,4.42
2022-10-07T03:40:04.830Z,4.44
2022-10-07T03:42:31.295Z,4.25
2022-10-07T03:44:57.843Z,4.45
2022-10-07T03:47:24.262Z,4.57
2022-10-07T03:49:51.054Z,4.56
2022-10-07T03:52:18.684Z,4.48
2022-10-07T03:54:45.753Z,4.45
2022-10-07T03:57:31.405Z,4.51
2022-10-07T04:00:00.129Z,4.42
2022-10-07T04:02:27.599Z,4.44
2022-10-07T04:04:55.429Z,4.40
2022-10-07T04:07:23.168Z,4.34
2022-10-07T04:09:50.878Z,4.35
2022-10-07T04:12:17.416Z,4.31
2022-10-07T04:14:43.835Z,4.27
2022-10-07T04:17:10.586Z,3.94
2022-10-07T04:19:37.126Z,4.25
2022-10-07T04:22:08.404Z,4.18
2022-10-07T04:24:35.346Z,3.82
2022-10-07T04:27:04.890Z,3.94
2022-10-07T04:29:35.417Z,4.15
2022-10-07T04:32:05.615Z,4.21
2022-10-07T04:34:32.105Z,4.24
2022-10-07T04:37:01.131Z,4.15
2022-10-07T04:39:49.064Z,4.12
2022-10-07T04:42:34.007Z,3.97
2022-10-07T04:45:01.087Z,4.22
2022-10-07T04:47:27.715Z,3.93
2022-10-07T04:49:55.059Z,3.80
2022-10-07T04:52:22.143Z,3.86
2022-10-07T04:54:48.982Z,3.91
2022-10-07T04:57:15.678Z,3.90
2022-10-07T04:59:43.781Z,3.86
2022-10-07T05:02:14.328Z,3.76
2022-10-07T05:04:42.009Z,3.78
2022-10-07T05:07:10.109Z,3.64
2022-10-07T05:09:36.998Z,3.62
2022-10-07T05:12:04.978Z,3.50
2022-10-07T05:14:33.596Z,3.64
2022-10-07T05:17:00.471Z,3.62
2022-10-07T05:19:31.132Z,3.58
2022-10-07T05:21:57.770Z,3.65
2022-10-07T05:24:25.589Z,3.59
2022-10-07T05:26:52.542Z,3.37
2022-10-07T05:29:19.578Z,3.53
2022-10-07T05:31:49.609Z,3.46
2022-10-07T05:34:20.174Z,3.51
2022-10-07T05:36:47.241Z,3.49
2022-10-07T05:39:14.495Z,3.57
2022-10-07T05:42:01.724Z,3.63
2022-10-07T05:44:34.574Z,3.53
2022-10-07T05:47:03.184Z,3.57
2022-10-07T05:49:30.574Z,3.41
2022-10-07T05:51:57.489Z,3.56
2022-10-07T05:54:24.442Z,3.51
2022-10-07T05:56:52.749Z,3.46
2022-10-07T05:59:20.628Z,3.36
2022-10-07T06:01:48.091Z,3.38
2022-10-07T06:04:19.887Z,3.31
2022-10-07T06:06:48.293Z,3.33
2022-10-07T06:09:37.621Z,3.36
2022-10-07T06:12:30.281Z,3.37
2022-10-07T06:14:59.252Z,3.49
2022-10-07T06:17:25.941Z,3.27
2022-10-07T06:19:55.556Z,3.57
2022-10-07T06:22:23.201Z,3.61
2022-10-07T06:24:52.029Z,3.83
2022-10-07T06:27:18.741Z,3.96
2022-10-07T06:29:45.228Z,4.15
2022-10-07T06:32:11.731Z,4.29
2022-10-07T06:34:39.684Z,4.30
2022-10-07T06:37:06.219Z,4.38
2022-10-07T06:39:33.528Z,4.72
2022-10-07T06:41:59.940Z,4.95
2022-10-07T06:44:44.900Z,5.28
2022-10-07T06:47:15.711Z,5.60
2022-10-07T06:49:44.154Z,5.60
2022-10-07T06:52:10.978Z,5.72
2022-10-07T06:54:37.684Z,5.79
2022-10-07T06:57:26.393Z,5.78
2022-10-07T06:59:54.885Z,5.36
2022-10-07T07:02:21.451Z,5.64
2022-10-07T07:04:47.984Z,5.73
2022-10-07T07:07:14.702Z,6.21
2022-10-07T07:09:41.154Z,6.68
2022-10-07T07:12:10.043Z,7.09
2022-10-07T07:14:40.195Z,6.93
2022-10-07T07:17:11.834Z,6.98
2022-10-07T07:19:39.012Z,7.17
2022-10-07T07:22:05.988Z,7.24
2022-10-07T07:24:32.432Z,7.69
2022-10-07T07:26:58.879Z,7.72
2022-10-07T07:29:28.328Z,8.01
2022-10-07T07:32:00.053Z,8.18
2022-10-07T07:34:31.171Z,8.33
2022-10-07T07:36:58.507Z,8.50
2022-10-07T07:39:30.242Z,8.57
2022-10-07T07:42:04.079Z,8.82
2022-10-07T07:44:34.126Z,9.14
2022-10-07T07:47:02.291Z,9.56
2022-10-07T07:49:31.894Z,9.91
2022-10-07T07:51:58.928Z,10.32
2022-10-07T07:54:30.505Z,10.67
2022-10-07T07:56:57.643Z,10.83
2022-10-07T07:59:26.585Z,11.34
2022-10-07T08:01:55.453Z,11.36
2022-10-07T08:04:23.739Z,11.65
2022-10-07T08:06:51.069Z,11.73
2022-10-07T08:09:18.498Z,11.62
2022-10-07T08:11:47.026Z,11.84
2022-10-07T08:14:17.181Z,11.82
2022-10-07T08:16:47.284Z,11.96
2022-10-07T08:19:13.842Z,11.85
2022-10-07T08:21:40.638Z,12.04
2022-10-07T08:24:12.330Z,12.29
2022-10-07T08:26:39.415Z,12.24
2022-10-07T08:29:08.701Z,12.41
2022-10-07T08:31:35.700Z,12.64
2022-10-07T08:34:04.101Z,12.72
2022-10-07T08:36:32.775Z,12.77
2022-10-07T08:39:00.731Z,12.91
2022-10-07T08:41:57.958Z,13.25
2022-10-07T08:44:35.880Z,13.54
2022-10-07T08:47:16.247Z,13.61
2022-10-07T08:50:07.460Z,13.87
2022-10-07T08:52:59.976Z,14.14
2022-10-07T08:55:54.757Z,14.34
2022-10-07T08:58:51.890Z,14.41
2022-10-07T09:01:30.911Z,14.30
2022-10-07T09:04:18.208Z,14.07
2022-10-07T09:06:55.262Z,13.83
2022-10-07T09:10:01.245Z,14.01
2022-10-07T09:12:42.913Z,13.98
2022-10-07T09:15:21.182Z,14.18
2022-10-07T09:17:54.233Z,14.26
2022-10-07T09:20:29.837Z,14.28
2022-10-07T09:22:59.180Z,14.47
2022-10-07T09:25:28.746Z,14.39
2022-10-07T09:27:55.527Z,14.65
2022-10-07T09:30:24.813Z,14.67
2022-10-07T09:32:56.485Z,14.69
2022-10-07T09:35:25.929Z,14.63
2022-10-07T09:38:05.471Z,14.88
2022-10-07T09:40:37.004Z,14.99
2022-10-07T09:43:14.041Z,14.88
2022-10-07T09:45:46.159Z,15.07
2022-10-07T09:48:21.256Z,14.65
2022-10-07T09:50:48.609Z,15.41
2022-10-07T09:53:29.020Z,15.55
2022-10-07T09:55:55.561Z,15.55
2022-10-07T09:58:26.302Z,15.51
2022-10-07T10:00:57.904Z,15.72
2022-10-07T10:03:33.270Z,15.91
2022-10-07T10:06:08.776Z,15.95
2022-10-07T10:08:44.781Z,15.93
2022-10-07T10:11:20.460Z,16.13
2022-10-07T10:13:50.222Z,16.26
2022-10-07T10:16:26.063Z,16.41
2022-10-07T10:18:58.871Z,16.26
2022-10-07T10:21:35.161Z,16.49
2022-10-07T10:24:06.242Z,16.59
2022-10-07T10:27:03.760Z,16.87
2022-10-07T10:29:47.362Z,17.03
2022-10-07T10:32:41.100Z,16.84
2022-10-07T10:35:19.390Z,16.66
2022-10-07T10:38:23.292Z,16.75
2022-10-07T10:41:05.455Z,16.86
2022-10-07T10:43:51.118Z,16.92
2022-10-07T10:46:51.773Z,17.04
2022-10-07T10:49:37.412Z,16.93
2022-10-07T10:52:21.017Z,17.08
2022-10-07T10:55:06.731Z,17.16
2022-10-07T10:57:42.466Z,17.18
2022-10-07T11:00:17.090Z,17.22
2022-10-07T11:03:05.540Z,17.35
2022-10-07T11:05:36.684Z,17.46
2022-10-07T11:08:27.518Z,17.17
2022-10-07T11:10:57.564Z,16.90
2022-10-07T11:13:37.491Z,16.81
2022-10-07T11:16:06.889Z,16.86
2022-10-07T11:18:48.711Z,16.86
2022-10-07T11:21:34.158Z,16.84
2022-10-07T11:24:10.152Z,16.94
2022-10-07T11:26:47.497Z,16.68
2022-10-07T11:29:31.200Z,16.85
2022-10-07T11:32:23.849Z,16.99
2022-10-07T11:34:58.989Z,17.10
2022-10-07T11:37:43.768Z,17.05
2022-10-07T11:40:11.954Z,16.86
2022-10-07T11:42:44.338Z,16.83
2022-10-07T11:45:19.077Z,17.03
2022-10-07T11:47:51.840Z,17.02
2022-10-07T11:50:29.416Z,17.11
2022-10-07T11:53:03.546Z,17.22
2022-10-07T11:55:39.770Z,17.25
2022-10-07T11:58:06.402Z,17.28
2022-10-07T12:00:35.877Z,17.33
2022-10-07T12:03:31.327Z,17.40
2022-10-07T12:06:07.781Z,17.08
2022-10-07T12:08:39.188Z,16.88
2022-10-07T12:11:12.398Z,16.79
2022-10-07T12:13:48.556Z,16.83
2022-10-07T12:16:23.899Z,16.72
2022-10-07T12:19:06.346Z,16.46
2022-10-07T12:22:02.827Z,16.61
2022-10-07T12:24:31.466Z,16.73
2022-10-07T12:27:19.833Z,16.73
2022-10-07T12:29:53.379Z,16.79
2022-10-07T12:32:52.928Z,16.87
2022-10-07T12:35:34.276Z,16.92
2022-10-07T12:38:14.273Z,16.95
2022-10-07T12:40:44.239Z,17.03
2022-10-07T12:43:24.857Z,17.17
2022-10-07T12:45:52.251Z,17.24
2022-10-07T12:48:22.473Z,17.35
2022-10-07T12:50:51.876Z,17.41
2022-10-07T12:53:27.911Z,17.42
2022-10-07T12:55:56.293Z,17.33
2022-10-07T12:58:49.127Z,17.39
2022-10-07T13:01:41.161Z,17.26
2022-10-07T13:04:26.302Z,17.36
2022-10-07T13:07:23.393Z,17.49
2022-10-07T13:09:59.433Z,17.42
2022-10-07T13:12:37.983Z,17.52
2022-10-07T13:15:42.605Z,17.50
2022-10-07T13:18:20.737Z,17.54
2022-10-07T13:21:02.640Z,17.57
2022-10-07T13:23:30.983Z,17.53
2022-10-07T13:26:00.095Z,17.60
2022-10-07T13:28:35.831Z,17.62
2022-10-07T13:31:24.128Z,17.68
2022-10-07T13:33:52.031Z,17.60
2022-10-07T13:36:26.400Z,17.22
2022-10-07T13:39:15.923Z,17.69
2022-10-07T13:41:47.953Z,17.51
2022-10-07T13:44:18.359Z,17.58
2022-10-07T13:47:01.121Z,17.58
2022-10-07T13:49:30.855Z,17.57
2022-10-07T13:52:01.507Z,17.57
2022-10-07T13:54:32.594Z,17.62
2022-10-07T13:57:02.293Z,17.56
2022-10-07T13:59:29.502Z,17.54
2022-10-07T14:02:01.201Z,17.52
2022-10-07T14:04:31.363Z,17.53
2022-10-07T14:07:12.900Z,17.43
2022-10-07T14:09:44.387Z,17.48
2022-10-07T14:12:18.400Z,17.40
2022-10-07T14:14:48.217Z,17.42
2022-10-07T14:17:40.959Z,17.42
2022-10-07T14:20:29.788Z,17.37
2022-10-07T14:22:58.772Z,17.40
2022-10-07T14:25:28.012Z,17.41
2022-10-07T14:28:07.434Z,17.40
2022-10-07T14:30:56.955Z,17.41
2022-10-07T14:33:54.636Z,17.41
2022-10-07T14:36:22.099Z,17.31
2022-10-07T14:38:51.086Z,17.36
2022-10-07T14:41:20.392Z,17.34
2022-10-07T14:43:48.784Z,17.28
2022-10-07T14:46:18.220Z,17.20
2022-10-07T14:48:45.644Z,17.22
2022-10-07T14:51:12.815Z,16.98
2022-10-07T14:53:41.977Z,17.10
2022-10-07T14:56:22.288Z,17.14
2022-10-07T14:58:48.749Z,17.10
2022-10-07T15:01:15.218Z,17.01
2022-10-07T15:03:41.759Z,16.91
2022-10-07T15:06:08.308Z,16.92
2022-10-07T15:08:34.735Z,16.94
2022-10-07T15:11:01.411Z,16.96
2022-10-07T15:13:29.075Z,16.98
2022-10-07T15:15:55.710Z,16.95
2022-10-07T15:18:22.332Z,16.91
2022-10-07T15:20:55.250Z,16.90
2022-10-07T15:23:21.757Z,16.86
2022-10-07T15:25:48.149Z,16.82
2022-10-07T15:28:15.351Z,16.72
2022-10-07T15:30:41.886Z,16.66
2022-10-07T15:33:10.205Z,16.56
2022-10-07T15:35:37.465Z,16.57
2022-10-07T15:38:04.004Z,16.55
2022-10-07T15:40:31.148Z,16.47
2022-10-07T15:42:58.129Z,16.35
2022-10-07T15:45:25.485Z,16.34
2022-10-07T15:47:56.803Z,16.30
2022-10-07T15:50:27.394Z,16.23
2022-10-07T15:52:54.674Z,16.23
2022-10-07T15:55:21.106Z,16.24
2022-10-07T15:57:47.712Z,16.18
2022-10-07T16:00:15.032Z,16.17
2022-10-07T16:02:41.561Z,16.21
2022-10-07T16:05:09.632Z,16.16
2022-10-07T16:07:36.492Z,16.18
2022-10-07T16:10:03.537Z,16.17
2022-10-07T16:12:29.937Z,16.11
2022-10-07T16:14:56.346Z,16.08
2022-10-07T16:17:22.788Z,16.05
2022-10-07T16:19:49.218Z,15.99
2022-10-07T16:22:16.710Z,15.96
2022-10-07T16:24:43.190Z,15.92
2022-10-07T16:27:09.623Z,15.86
2022-10-07T16:29:54.855Z,15.81
2022-10-07T16:32:21.276Z,15.70
2022-10-07T16:34:48.228Z,15.63
2022-10-07T16:37:15.304Z,15.62
2022-10-07T16:39:41.920Z,15.56
2022-10-07T16:42:08.611Z,15.50
2022-10-07T16:44:35.315Z,15.39
2022-10-07T16:47:01.846Z,15.29
2022-10-07T16:49:30.107Z,15.13
2022-10-07T16:51:57.376Z,15.11
2022-10-07T16:54:24.345Z,15.08
2022-10-07T16:56:52.420Z,14.97
2022-10-07T16:59:23.147Z,14.81
2022-10-07T17:01:53.457Z,14.91
2022-10-07T17:04:20.109Z,14.50
2022-10-07T17:06:47.018Z,14.75
2022-10-07T17:09:16.329Z,14.70
2022-10-07T17:11:42.809Z,14.53
2022-10-07T17:14:18.221Z,14.45
2022-10-07T17:16:50.195Z,14.14
2022-10-07T17:19:19.129Z,13.78
2022-10-07T17:21:52.508Z,13.86
2022-10-07T17:24:21.315Z,13.87
2022-10-07T17:26:48.669Z,13.79
2022-10-07T17:29:18.169Z,13.89
2022-10-07T17:31:48.156Z,13.85
2022-10-07T17:34:16.013Z,13.85
2022-10-07T17:36:43.732Z,13.60
2022-10-07T17:39:10.382Z,13.55
2022-10-07T17:41:38.732Z,13.63
2022-10-07T17:44:10.281Z,13.69
2022-10-07T17:46:40.849Z,13.64
2022-10-07T17:49:09.718Z,13.66
2022-10-07T17:51:37.275Z,13.61
2022-10-07T17:54:05.912Z,13.51
2022-10-07T17:56:33.008Z,13.50
2022-10-07T17:58:59.541Z,13.47
2022-10-07T18:01:31.682Z,13.21
2022-10-07T18:04:04.275Z,12.93
2022-10-07T18:06:35.121Z,13.00
2022-10-07T18:09:04.581Z,12.92
2022-10-07T18:11:50.262Z,12.85
2022-10-07T18:14:35.577Z,12.96
2022-10-07T18:17:02.712Z,12.90
2022-10-07T18:19:29.594Z,12.90
2022-10-07T18:21:56.539Z,12.86
2022-10-07T18:24:27.446Z,12.87
2022-10-07T18:26:58.948Z,12.69
2022-10-07T18:29:30.199Z,12.72
2022-10-07T18:31:56.856Z,12.63
2022-10-07T18:34:23.764Z,12.37
2022-10-07T18:36:55.177Z,12.61
2022-10-07T18:39:22.910Z,12.32
2022-10-07T18:41:49.375Z,12.17
2022-10-07T18:44:15.938Z,12.11
2022-10-07T18:46:42.328Z,11.76
2022-10-07T18:49:09.329Z,12.28
2022-10-07T18:51:35.794Z,12.19
2022-10-07T18:54:04.579Z,12.13
2022-10-07T18:56:31.061Z,12.01
2022-10-07T18:58:58.265Z,12.08
2022-10-07T19:01:27.753Z,12.03
2022-10-07T19:04:01.076Z,12.00
2022-10-07T19:06:30.284Z,12.03
2022-10-07T19:08:59.093Z,11.69
2022-10-07T19:11:26.389Z,11.78
2022-10-07T19:13:58.141Z,11.91
2022-10-07T19:16:29.368Z,11.80
2022-10-07T19:18:59.193Z,11.76
2022-10-07T19:21:26.256Z,11.69
2022-10-07T19:23:54.813Z,11.74
2022-10-07T19:26:23.860Z,11.74
2022-10-07T19:28:52.399Z,11.74
2022-10-07T19:31:24.818Z,11.69
2022-10-07T19:33:56.260Z,11.41
2022-10-07T19:36:23.393Z,11.56
2022-10-07T19:38:53.502Z,11.67
2022-10-07T19:41:22.819Z,11.63
2022-10-07T19:43:51.266Z,11.61
2022-10-07T19:46:19.390Z,11.58
2022-10-07T19:48:46.041Z,11.56
2022-10-07T19:51:19.497Z,11.47
2022-10-07T19:53:47.466Z,11.44
2022-10-07T19:56:15.687Z,11.44
2022-10-07T19:58:47.860Z,11.19
2022-10-07T20:01:17.134Z,11.27
2022-10-07T20:03:43.958Z,10.92
2022-10-07T20:06:11.205Z,11.28
2022-10-07T20:08:40.246Z,11.06
2022-10-07T20:11:07.431Z,10.80
2022-10-07T20:13:38.207Z,10.92
2022-10-07T20:16:09.360Z,10.89
2022-10-07T20:18:37.549Z,10.82
2022-10-07T20:21:10.737Z,10.64
2022-10-07T20:23:40.334Z,10.67
2022-10-07T20:26:09.911Z,10.94
2022-10-07T20:28:39.314Z,11.00
2022-10-07T20:31:08.362Z,10.98
2022-10-07T20:33:39.287Z,10.97
2022-10-07T20:36:07.406Z,10.98
2022-10-07T20:38:54.606Z,10.96
2022-10-07T20:41:40.934Z,10.89
2022-10-07T20:44:07.654Z,10.88
2022-10-07T20:46:34.616Z,10.69
2022-10-07T20:49:02.524Z,10.75
2022-10-07T20:51:30.344Z,10.73
2022-10-07T20:53:56.734Z,10.78
2022-10-07T20:56:23.153Z,10.69
2022-10-07T20:58:49.555Z,10.74
2022-10-07T21:01:16.196Z,10.73
2022-10-07T21:03:42.684Z,10.75
2022-10-07T21:06:09.283Z,10.79
2022-10-07T21:08:35.736Z,10.75
2022-10-07T21:11:03.632Z,10.79
2022-10-07T21:13:31.421Z,10.56
2022-10-07T21:15:58.225Z,10.61
2022-10-07T21:18:26.472Z,10.55
2022-10-07T21:20:56.925Z,10.73
2022-10-07T21:23:23.939Z,10.79
2022-10-07T21:25:51.801Z,10.76
2022-10-07T21:28:19.247Z,10.51
2022-10-07T21:30:55.486Z,10.65
2022-10-07T21:33:22.198Z,10.63
2022-10-07T21:35:48.624Z,10.83
2022-10-07T21:38:15.702Z,10.82
2022-10-07T21:40:42.321Z,10.75
2022-10-07T21:43:08.757Z,10.78
2022-10-07T21:45:35.217Z,10.72
2022-10-07T21:48:01.871Z,10.59
2022-10-07T21:50:28.313Z,10.62
2022-10-07T21:52:54.745Z,10.56
2022-10-07T21:55:21.114Z,10.59
2022-10-07T21:57:47.517Z,10.60
2022-10-07T22:00:15.840Z,10.59
2022-10-07T22:02:42.278Z,10.57
2022-10-07T22:05:11.335Z,10.65
2022-10-07T22:07:56.316Z,10.70
2022-10-07T22:10:22.781Z,10.74
2022-10-07T22:12:49.495Z,10.71
2022-10-07T22:15:17.080Z,10.68
2022-10-07T22:17:43.457Z,10.68
2022-10-07T22:20:10.188Z,10.49
2022-10-07T22:22:37.396Z,10.66
2022-10-07T22:25:04.378Z,10.61
2022-10-07T22:27:30.832Z,10.68
2022-10-07T22:29:57.219Z,10.65
2022-10-07T22:32:26.709Z,10.65
2022-10-07T22:35:11.890Z,10.58
2022-10-07T22:37:41.039Z,10.35
2022-10-07T22:40:08.330Z,10.63
2022-10-07T22:42:35.333Z,10.33
2022-10-07T22:45:01.765Z,10.53
2022-10-07T22:47:28.306Z,10.58
2022-10-07T22:49:55.125Z,10.53
2022-10-07T22:52:22.358Z,10.53
2022-10-07T22:54:52.475Z,10.44
2022-10-07T22:57:22.214Z,10.46
2022-10-07T22:59:49.171Z,10.36
2022-10-07T23:02:17.942Z,10.49
2022-10-07T23:04:44.367Z,10.54
2022-10-07T23:07:10.789Z,10.45
2022-10-07T23:09:37.227Z,10.55
2022-10-07T23:12:05.923Z,10.52
2022-10-07T23:14:35.407Z,10.56
2022-10-07T23:17:01.994Z,10.60
2022-10-07T23:19:28.618Z,10.61
2022-10-07T23:21:55.840Z,10.57
2022-10-07T23:24:22.362Z,10.41
2022-10-07T23:26:48.727Z,10.51
2022-10-07T23:29:15.714Z,10.61
2022-10-07T23:31:45.056Z,10.61
2022-10-07T23:34:11.528Z,10.69
2022-10-07T23:36:40.595Z,10.70
2022-10-07T23:39:07.011Z,10.76
2022-10-07T23:41:33.487Z,10.75
2022-10-07T23:44:02.107Z,10.78
2022-10-07T23:46:32.740Z,10.65
2022-10-07T23:48:59.471Z,10.81
2022-10-07T23:51:32.250Z,10.78
2022-10-07T23:54:00.537Z,10.81
2022-10-07T23:56:27.043Z,10.84
2022-10-07T23:58:53.572Z,10.78
